Flight Track Log - Related Links

Times and Time Zones

All times are in EDT time to prevent confusion due to time zone crossing. See the EJA831 flight status page for this flight to view local times or setup timezone preferences in your user account.

Time Position Orientation Groundspeed Altitude Reporting Facility
EDT Latitude Longitude Course Direction KTS MPH feet Rate Location/Type
Wed 07:55:21 AM 44.7697 -68.7731 156° South 236 272 3,500  Level Boston Center
Wed 07:56:21 AM 44.7144 -68.7386 156° South 221 254 7,200 3,300 Climbing Boston Center
Wed 07:57:21 AM 44.6736 -68.8258 237° Southwest 182 209 10,100 3,050 Climbing Boston Center
Wed 07:58:21 AM 44.6369 -68.9244 242° Southwest 238 274 13,300 3,250 Climbing Boston Center
Wed 07:59:21 AM 44.6025 -69.0228 244° Southwest 261 300 16,600 3,250 Climbing Boston Center
Wed 08:00:21 AM 44.5658 -69.1239 243° Southwest 280 322 19,800 2,750 Climbing Boston Center
Wed 08:01:21 AM 44.5289 -69.2250 243° Southwest 291 335 22,100 2,300 Climbing Boston Center
Wed 08:02:21 AM 44.4922 -69.3289 244° Southwest 291 335 24,400 2,050 Climbing Boston Center
Wed 08:03:21 AM 44.4533 -69.4328 242° Southwest 296 341 26,200 1,550 Climbing Boston Center
Wed 08:04:21 AM 44.4203 -69.5275 244° Southwest 296 341 27,500 1,450 Climbing Boston Center
Wed 08:05:21 AM 44.3814 -69.6339 243° Southwest 301 346 29,100 1,250 Climbing Boston Center
Wed 08:06:21 AM 44.3422 -69.7403 243° Southwest 307 353 30,000 450 Climbing Boston Center
Wed 08:07:21 AM 44.3031 -69.8553 245° Southwest 313 360 30,000  Level Boston Center
Wed 08:08:21 AM 44.2578 -69.9733 242° Southwest 329 379 30,000  Level Boston Center
Wed 08:09:21 AM 44.2144 -70.0908 243° Southwest 340 391 30,000  Level Boston Center
Wed 08:10:21 AM 44.1708 -70.2083 243° Southwest 345 397 30,000  Level Boston Center
Wed 08:11:21 AM 44.1272 -70.3286 243° Southwest 350 403 30,000  Level Boston Center
Wed 08:12:21 AM 44.0814 -70.4458 241° Southwest 350 403 30,000  Level Boston Center
Wed 08:13:21 AM 44.0378 -70.5658 243° Southwest 355 409 30,000  Level Boston Center
Wed 08:14:21 AM 43.9936 -70.6797 242° Southwest 355 409 30,000  Level Boston Center
Wed 08:15:21 AM 43.9475 -70.8022 242° Southwest 355 409 30,000  Level Boston Center
Wed 08:16:21 AM 43.9011 -70.9217 242° Southwest 360 414 30,000  Level Boston Center
Wed 08:17:21 AM 43.8528 -71.0525 243° Southwest 360 414 30,000  Level Boston Center
Wed 08:18:21 AM 43.8064 -71.1742 242° Southwest 355 409 30,000  Level Boston Center
Wed 08:19:21 AM 43.7597 -71.2931 242° Southwest 355 409 30,000  Level Boston Center
Wed 08:20:21 AM 43.7150 -71.4089 242° Southwest 355 409 30,000  Level Boston Center
Wed 08:21:21 AM 43.6761 -71.5042 241° Southwest 355 409 30,000 -300 Level Boston Center
Wed 08:22:21 AM 43.6272 -71.6342 243° Southwest 355 409 29,400 -800 Descending Boston Center
Wed 08:23:21 AM 43.5800 -71.7581 242° Southwest 355 409 28,400 -700 Descending Boston Center
Wed 08:24:21 AM 43.5328 -71.8789 242° Southwest 360 414 28,000 -200 Descending Boston Center
Wed 08:25:21 AM 43.4875 -71.9936 241° Southwest 355 409 28,000  Level Boston Center
Wed 08:26:21 AM 43.4400 -72.1114 241° Southwest 355 409 28,000  Level Boston Center
Wed 08:27:21 AM 43.3922 -72.2317 241° Southwest 355 409 28,000  Level Boston Center
Wed 08:28:21 AM 43.3486 -72.3458 242° Southwest 355 409 28,000  Level Boston Center
Wed 08:29:21 AM 43.3008 -72.4658 241° Southwest 355 409 28,000  Level Boston Center
Wed 08:30:21 AM 43.2547 -72.5825 242° Southwest 355 409 28,000  Level Boston Center
Wed 08:31:21 AM 43.2044 -72.7022 240° Southwest 355 409 28,000  Level Boston Center
Wed 08:32:33 AM 43.1564 -72.8214 241° Southwest 355 409 28,000  Level Boston Center
Wed 08:33:33 AM 43.0911 -72.9744 240° Southwest 361 415 28,000 -200 Level Boston Center
Wed 08:34:33 AM 43.0489 -73.0850 242° Southwest 361 415 27,600 -1,150 Descending Boston Center
Wed 08:35:33 AM 43.0000 -73.2094 242° Southwest 361 415 25,700 -1,950 Descending Boston Center
Wed 08:36:33 AM 42.9492 -73.3336 241° Southwest 366 421 23,700 -2,100 Descending Boston Center
Wed 08:37:33 AM 42.8919 -73.4489 236° Southwest 373 429 21,500 -2,000 Descending Boston Center
Wed 08:38:33 AM 42.8492 -73.5644 243° Southwest 367 422 19,700 -2,200 Descending Boston Center
Wed 08:39:33 AM 42.7958 -73.6850 239° Southwest 348 400 17,100 -2,100 Descending Boston Center
Wed 08:40:33 AM 42.7531 -73.7861 240° Southwest 348 400 15,500 -1,550 Descending Boston Center
Wed 08:41:33 AM 42.6589 -73.8122 192° South 319 367 14,000 -750 Descending Boston Center
Wed 08:42:33 AM 42.5483 -73.8097 179° South 326 375 14,000  Level Boston Center
Wed 08:43:33 AM 42.4608 -73.8106 180° South 345 397 14,000 -400 Level Boston Center
Wed 08:44:33 AM 42.3506 -73.8111 180° South 364 419 13,200 -950 Descending Boston Center
Wed 08:45:33 AM 42.2650 -73.8119 180° South 364 419 12,100 -600 Descending Boston Center
Wed 08:46:33 AM 42.1608 -73.8153 181° South 357 411 12,000 -50 Descending Boston Center
Wed 08:47:33 AM 42.0753 -73.8161 180° South 349 402 12,000  Level Boston Center
Wed 08:48:33 AM 41.9814 -73.8197 182° South 344 396 12,000 -300 Level Boston Center
Wed 08:49:33 AM 41.8792 -73.8203 180° South 344 396 11,400 -1,000 Descending Boston Center
Wed 08:50:33 AM 41.8022 -73.8214 181° South 327 376 10,000 -1,500 Descending Boston Center
Wed 08:51:33 AM 41.7167 -73.8222 180° South 290 334 8,400 -1,400 Descending Boston Center
Wed 08:52:33 AM 41.6458 -73.8319 186° South 290 334 7,200 -1,221 Descending Boston Center
Wed 08:53:26 AM 41.5667 -73.8500 190° South 264 304 6,100 -637 Descending New York TRACON
Wed 08:54:26 AM 41.5000 -73.8667 191° South 268 308 6,000 -53 Descending New York TRACON
Wed 08:55:20 AM 41.4333 -73.8667 180° South 275 316 6,000 -800 Level New York TRACON
Wed 08:56:26 AM 41.3667 -73.8167 151° Southeast 281 323 4,400 -1,381 Descending New York TRACON
Wed 08:57:26 AM 41.3000 -73.7500 143° Southeast 279 321 3,100 -700 Descending New York TRACON
Wed 08:58:26 AM 41.2333 -73.7000 151° Southeast 265 305 3,000 -53 Descending New York TRACON
Wed 08:59:20 AM 41.1833 -73.6500 143° Southeast 260 299 3,000  Level New York TRACON
Wed 09:00:20 AM 41.1167 -73.6167 159° South 264 304 3,000  Level New York TRACON
Wed 09:01:20 AM 41.0500 -73.6000 169° South 271 312 3,000 -150 Level New York TRACON
Wed 09:02:20 AM 41.0000 -73.6167 194° South 210 242 2,700 -650 Descending New York TRACON
Wed 09:03:20 AM 41.0167 -73.6667 294° West 166 191 1,700 -1,000 Descending New York TRACON
Wed 09:04:20 AM 41.0500 -73.6833 339° North 116 133 700 -1,000 Descending New York TRACON

Login

Don't have an account? Register now (free) for customized features, flight alerts, and more!